Time;durP1;ratioP1;P1;durP2;ratioP2;P2;SDS_P1;SDS_P2;PMS_P1;PMS_P2;Temp;Humidity;BMP_temperature;BMP_pressure;BME280_temperature;BME280_humidity;BME280_pressure;Samples;Min_cycle;Max_cycle;Signal;HPM_P1;HPM_P2
2022/08/27 00:09:46;;;;;;;0.20;0.00;;;26.50;99.90;;;;;;26111305;22;20187;-68
2022/08/27 00:19:51;;;;;;;0.20;0.00;;;26.40;99.90;;;;;;26169277;22;20187;-68
2022/08/27 00:29:55;;;;;;;0.20;0.00;;;26.40;99.90;;;;;;26175737;22;20167;-69
2022/08/27 00:40:00;;;;;;;0.20;0.00;;;26.30;99.90;;;;;;26152061;22;20253;-69
2022/08/27 00:50:09;;;;;;;0.20;0.00;;;26.00;99.90;;;;;;26149177;22;20266;-69
2022/08/27 01:00:18;;;;;;;0.20;0.00;;;25.70;99.90;;;;;;26176785;22;20252;-70
2022/08/27 01:10:24;;;;;;;0.20;0.00;;;25.60;99.90;;;;;;26177489;22;20209;-69
2022/08/27 01:20:34;;;;;;;0.20;0.10;;;25.30;99.90;;;;;;26175692;22;20183;-71
2022/08/27 01:30:39;;;;;;;0.20;0.00;;;24.90;99.90;;;;;;26148047;22;20167;-71
2022/08/27 01:40:44;;;;;;;0.20;0.10;;;24.50;99.90;;;;;;26148493;22;20513;-69
2022/08/27 01:50:50;;;;;;;0.20;0.00;;;24.60;99.90;;;;;;26174554;22;20223;-70
2022/08/27 02:00:59;;;;;;;0.20;0.00;;;24.50;99.90;;;;;;26174893;22;20192;-70
2022/08/27 02:11:05;;;;;;;0.20;0.00;;;24.70;99.90;;;;;;26174207;22;20199;-71
2022/08/27 02:21:09;;;;;;;0.20;0.00;;;24.80;99.90;;;;;;26148584;22;20279;-71
2022/08/27 02:31:14;;;;;;;0.20;0.10;;;24.70;99.90;;;;;;26145168;22;20167;-71
2022/08/27 02:41:19;;;;;;;0.20;0.08;;;24.70;99.90;;;;;;26144289;22;20179;-69
2022/08/27 02:51:24;;;;;;;0.20;0.00;;;24.80;99.90;;;;;;26172744;22;20164;-69
2022/08/27 03:01:28;;;;;;;0.20;0.00;;;24.80;99.90;;;;;;26172549;22;20199;-71
2022/08/27 03:11:33;;;;;;;0.20;0.00;;;24.70;99.90;;;;;;26173210;22;20219;-69
2022/08/27 03:21:37;;;;;;;0.20;0.00;;;24.70;99.90;;;;;;26170921;22;20187;-70
2022/08/27 03:31:42;;;;;;;0.20;0.00;;;24.70;99.90;;;;;;26146016;22;20234;-69
2022/08/27 03:41:46;;;;;;;0.20;0.00;;;24.80;99.90;;;;;;26143770;22;20186;-70
2022/08/27 03:51:59;;;;;;;0.20;0.10;;;24.80;99.90;;;;;;26170542;22;20171;-70
2022/08/27 04:02:04;;;;;;;0.20;0.00;;;24.70;99.90;;;;;;26169972;22;20255;-71
2022/08/27 04:12:10;;;;;;;0.20;0.00;;;24.70;99.90;;;;;;26142904;22;20202;-70
2022/08/27 04:22:15;;;;;;;0.20;0.00;;;24.60;99.90;;;;;;26118123;22;20191;-71
2022/08/27 04:32:20;;;;;;;0.20;0.00;;;24.50;99.90;;;;;;26169138;22;20209;-72
2022/08/27 04:42:24;;;;;;;0.20;0.00;;;24.60;99.90;;;;;;26143630;22;20203;-71
2022/08/27 04:52:29;;;;;;;0.20;0.00;;;24.70;99.90;;;;;;26167739;22;20189;-71
2022/08/27 05:02:33;;;;;;;0.20;0.10;;;24.60;99.90;;;;;;26139721;22;20199;-70
2022/08/27 05:12:38;;;;;;;0.20;0.00;;;24.70;99.90;;;;;;26172883;22;20198;-69
2022/08/27 05:22:42;;;;;;;0.20;0.00;;;24.70;99.90;;;;;;26147915;22;20195;-69
2022/08/27 05:32:48;;;;;;;0.20;0.00;;;24.80;99.90;;;;;;26174979;22;20164;-70
2022/08/27 05:42:52;;;;;;;0.20;0.00;;;24.80;99.90;;;;;;26150617;22;20188;-69
2022/08/27 05:52:57;;;;;;;0.20;0.00;;;24.90;99.90;;;;;;26122740;22;20171;-70
2022/08/27 06:03:01;;;;;;;0.20;0.00;;;24.80;99.90;;;;;;26148591;22;20205;-70
2022/08/27 06:13:06;;;;;;;0.20;0.00;;;24.80;99.90;;;;;;26172871;22;20195;-70
2022/08/27 06:23:10;;;;;;;0.20;0.00;;;25.00;99.90;;;;;;26146218;22;20213;-68
2022/08/27 06:33:16;;;;;;;0.20;0.00;;;25.20;99.90;;;;;;26143915;22;20170;-68
2022/08/27 06:43:19;;;;;;;0.20;0.00;;;25.40;99.90;;;;;;26145355;22;20184;-68
2022/08/27 06:53:28;;;;;;;0.20;0.00;;;25.80;99.90;;;;;;26172389;22;20168;-69
2022/08/27 07:03:32;;;;;;;0.20;0.00;;;26.00;99.90;;;;;;26041346;22;20184;-70
2022/08/27 07:13:38;;;;;;;0.20;0.00;;;26.30;99.90;;;;;;26042401;22;20199;-68
2022/08/27 07:23:42;;;;;;;0.20;0.00;;;26.80;99.90;;;;;;26013265;22;20184;-69
2022/08/27 07:33:47;;;;;;;0.20;0.00;;;27.30;99.90;;;;;;26041799;22;20222;-69
2022/08/27 07:54:22;;;;;;;0.20;0.00;;;27.20;99.90;;;;;;26051564;22;20217;-68
2022/08/27 08:04:27;;;;;;;0.20;0.00;;;27.40;99.90;;;;;;26167333;22;20222;-70
2022/08/27 08:14:33;;;;;;;0.20;0.00;;;27.60;99.90;;;;;;26168057;22;20197;-69
2022/08/27 08:24:36;;;;;;;0.20;0.00;;;27.60;99.90;;;;;;26140777;22;20184;-70
2022/08/27 08:34:42;;;;;;;0.20;0.00;;;27.70;99.90;;;;;;26168763;22;20167;-68
2022/08/27 08:44:51;;;;;;;0.20;0.00;;;27.90;99.90;;;;;;26141866;22;20221;-68
2022/08/27 08:55:08;;;;;;;0.20;0.00;;;27.90;99.90;;;;;;26146272;22;20225;-68
2022/08/27 09:05:12;;;;;;;0.20;0.00;;;28.30;99.90;;;;;;26148272;22;20206;-69
2022/08/27 09:15:22;;;;;;;0.20;0.00;;;28.30;99.90;;;;;;26149179;22;20239;-70
2022/08/27 09:25:28;;;;;;;0.20;0.00;;;28.50;99.90;;;;;;26172494;22;20243;-70
2022/08/27 09:35:43;;;;;;;0.20;0.00;;;28.70;99.90;;;;;;26173610;22;20247;-68
2022/08/27 09:45:50;;;;;;;0.20;0.00;;;28.20;99.90;;;;;;26170630;22;20206;-70
2022/08/27 09:55:59;;;;;;;0.20;0.00;;;27.60;99.90;;;;;;26143306;22;20784;-69
2022/08/27 10:06:03;;;;;;;0.20;0.00;;;27.80;99.90;;;;;;26143010;22;20202;-70
2022/08/27 10:16:34;;;;;;;0.20;0.03;;;27.90;99.90;;;;;;26170587;22;20171;-70
2022/08/27 10:26:44;;;;;;;0.20;0.00;;;28.20;99.90;;;;;;26170919;22;20205;-70
2022/08/27 10:37:00;;;;;;;0.20;0.00;;;28.50;99.90;;;;;;26142512;22;20160;-71
2022/08/27 10:47:19;;;;;;;0.20;0.00;;;29.50;99.90;;;;;;26170156;22;20254;-70
2022/08/27 10:57:40;;;;;;;0.20;0.00;;;30.00;99.90;;;;;;26140644;22;20187;-71
2022/08/27 11:08:06;;;;;;;0.20;0.00;;;30.60;99.90;;;;;;26166737;22;20210;-70
2022/08/27 11:18:17;;;;;;;0.20;0.10;;;31.20;99.90;;;;;;26142019;22;20167;-70
2022/08/27 11:28:28;;;;;;;0.20;0.00;;;30.80;99.90;;;;;;26167660;22;20183;-71
2022/08/27 11:38:45;;;;;;;0.20;0.10;;;31.10;99.90;;;;;;26166943;22;20163;-68
2022/08/27 11:48:58;;;;;;;0.20;0.00;;;30.30;99.90;;;;;;26139311;22;20201;-70
2022/08/27 11:59:12;;;;;;;0.20;0.00;;;29.80;99.90;;;;;;26136150;22;20221;-69
2022/08/27 12:09:19;;;;;;;0.20;0.00;;;30.20;99.90;;;;;;26161115;22;20225;-68
2022/08/27 12:19:41;;;;;;;0.20;0.00;;;30.20;99.90;;;;;;26163470;22;20177;-69
2022/08/27 12:29:51;;;;;;;0.20;0.00;;;31.50;99.90;;;;;;26167058;22;20187;-70
2022/08/27 12:40:00;;;;;;;0.20;0.00;;;32.20;99.90;;;;;;26164824;22;20148;-68
2022/08/27 12:50:06;;;;;;;0.20;0.00;;;33.70;99.90;;;;;;26167298;22;20175;-70
2022/08/27 13:00:17;;;;;;;0.20;0.00;;;32.80;99.90;;;;;;26037077;22;1899076;-70
2022/08/27 13:10:30;;;;;;;0.20;0.00;;;31.30;99.90;;;;;;26145069;22;20342;-70
2022/08/27 13:20:38;;;;;;;0.20;0.17;;;31.00;99.90;;;;;;26172038;22;20148;-70
2022/08/27 13:30:46;;;;;;;0.20;0.00;;;32.40;99.90;;;;;;26168336;22;20755;-70
2022/08/27 13:40:58;;;;;;;0.20;0.00;;;31.10;99.90;;;;;;26169297;22;20173;-70
2022/08/27 13:51:02;;;;;;;0.20;0.00;;;29.70;99.90;;;;;;26167066;22;20216;-70
2022/08/27 14:01:13;;;;;;;0.20;0.00;;;30.30;99.90;;;;;;26169395;22;20226;-70
2022/08/27 14:11:24;;;;;;;0.20;0.00;;;30.00;99.90;;;;;;26169444;22;20206;-69
2022/08/27 14:21:30;;;;;;;0.20;0.00;;;29.20;99.90;;;;;;26172053;22;20156;-70
2022/08/27 14:31:33;;;;;;;0.20;0.00;;;29.10;99.90;;;;;;26172185;22;20163;-69
2022/08/27 14:41:39;;;;;;;0.20;0.00;;;28.70;99.90;;;;;;26141784;22;20259;-70
2022/08/27 14:51:45;;;;;;;0.20;0.00;;;28.60;99.90;;;;;;26171062;22;20190;-69
2022/08/27 15:01:51;;;;;;;0.20;0.00;;;28.60;99.90;;;;;;26169121;22;20196;-71
2022/08/27 15:11:56;;;;;;;0.20;0.00;;;28.60;99.90;;;;;;26168925;22;20290;-71
2022/08/27 15:22:05;;;;;;;0.20;0.00;;;28.40;99.90;;;;;;26166071;22;20281;-71
2022/08/27 15:32:12;;;;;;;0.20;0.03;;;28.70;99.90;;;;;;26165365;22;20167;-72
2022/08/27 15:42:18;;;;;;;0.20;0.00;;;29.10;99.90;;;;;;26142163;22;20217;-70
2022/08/27 15:52:23;;;;;;;0.20;0.00;;;29.20;99.90;;;;;;26167285;22;20178;-71
2022/08/27 16:02:28;;;;;;;0.20;0.00;;;29.40;99.90;;;;;;26167113;22;20284;-71
2022/08/27 16:12:31;;;;;;;0.20;0.00;;;29.80;99.90;;;;;;26165770;22;20206;-73
2022/08/27 16:22:37;;;;;;;0.20;0.00;;;29.80;99.90;;;;;;26167000;22;20183;-71
2022/08/27 16:32:41;;;;;;;0.20;0.00;;;29.60;99.90;;;;;;26167597;22;20357;-71
2022/08/27 16:42:48;;;;;;;0.20;0.00;;;29.60;99.90;;;;;;26166733;22;20198;-71
2022/08/27 16:52:52;;;;;;;0.20;0.00;;;29.00;99.90;;;;;;26165152;22;20156;-72
2022/08/27 17:02:57;;;;;;;0.20;0.00;;;29.60;99.90;;;;;;26166455;22;20203;-72
2022/08/27 17:13:01;;;;;;;0.20;0.10;;;29.40;99.90;;;;;;26145252;22;20195;-70
2022/08/27 17:23:11;;;;;;;0.20;0.10;;;29.20;99.90;;;;;;26171461;22;20183;-73
2022/08/27 17:33:22;;;;;;;0.20;0.10;;;28.90;99.90;;;;;;26172789;22;20165;-71
2022/08/27 17:43:27;;;;;;;0.20;0.00;;;29.80;99.90;;;;;;26171628;22;20187;-69
2022/08/27 17:53:31;;;;;;;0.20;0.00;;;30.50;99.90;;;;;;26141884;22;20176;-71
2022/08/27 18:03:36;;;;;;;0.20;0.00;;;28.90;99.90;;;;;;26144575;22;20246;-70
2022/08/27 18:13:53;;;;;;;0.20;0.00;;;28.20;99.90;;;;;;26166402;22;20167;-70
2022/08/27 18:23:58;;;;;;;0.20;0.00;;;27.90;99.90;;;;;;26170550;22;20184;-69
2022/08/27 18:34:02;;;;;;;0.20;0.00;;;27.60;99.90;;;;;;26169705;22;20167;-69
2022/08/27 18:44:07;;;;;;;0.20;0.00;;;27.50;99.90;;;;;;26167036;22;20236;-68
2022/08/27 18:54:20;;;;;;;0.20;0.03;;;27.40;99.90;;;;;;26166291;22;20199;-68
2022/08/27 19:04:27;;;;;;;0.20;0.00;;;27.50;99.90;;;;;;26163895;22;20223;-68
2022/08/27 19:14:31;;;;;;;0.20;0.00;;;27.70;99.90;;;;;;26157104;22;20170;-69
2022/08/27 19:24:36;;;;;;;0.20;0.00;;;27.70;99.90;;;;;;26161061;22;20187;-68
2022/08/27 19:34:42;;;;;;;0.20;0.00;;;27.80;99.90;;;;;;26137360;22;20168;-69
2022/08/27 19:44:47;;;;;;;0.20;0.00;;;27.70;99.90;;;;;;26163910;22;20179;-66
2022/08/27 19:54:51;;;;;;;0.20;0.00;;;27.40;99.90;;;;;;26133528;22;20202;-69
2022/08/27 20:05:17;;;;;;;0.20;0.00;;;27.40;99.90;;;;;;26161893;22;20191;-69
2022/08/27 20:15:22;;;;;;;0.20;0.05;;;27.20;99.90;;;;;;26163549;22;20183;-69
2022/08/27 20:25:28;;;;;;;0.20;0.10;;;27.10;99.90;;;;;;26163903;22;20209;-68
2022/08/27 20:35:32;;;;;;;0.20;0.00;;;26.60;99.90;;;;;;26139052;22;20166;-72
2022/08/27 20:45:37;;;;;;;0.20;0.00;;;26.50;99.90;;;;;;26144563;22;20183;-71
2022/08/27 20:55:41;;;;;;;0.20;0.00;;;25.90;99.90;;;;;;26170108;22;20202;-70
2022/08/27 21:05:47;;;;;;;0.20;0.10;;;25.60;99.90;;;;;;26149072;22;21132;-71
2022/08/27 21:15:51;;;;;;;0.20;0.00;;;25.60;99.90;;;;;;26172385;22;20155;-69
2022/08/27 21:26:04;;;;;;;0.20;0.00;;;25.60;99.90;;;;;;26172341;22;20180;-69
2022/08/27 21:36:08;;;;;;;0.20;0.10;;;25.50;99.90;;;;;;26171314;22;20157;-69
2022/08/27 21:46:18;;;;;;;0.20;0.00;;;25.30;99.90;;;;;;26167221;22;20190;-68
2022/08/27 21:56:22;;;;;;;0.20;0.00;;;25.20;99.90;;;;;;26143302;22;20195;-69
2022/08/27 22:06:27;;;;;;;0.20;0.00;;;25.10;99.90;;;;;;26140479;22;20290;-68
2022/08/27 22:16:31;;;;;;;0.20;0.00;;;24.80;99.90;;;;;;26142591;22;20160;-69
2022/08/27 22:26:36;;;;;;;0.20;0.10;;;24.90;99.90;;;;;;26169768;22;20203;-69
2022/08/27 22:36:40;;;;;;;0.20;0.00;;;24.90;99.90;;;;;;26169399;22;20170;-70
2022/08/27 22:46:45;;;;;;;0.20;0.00;;;24.90;99.90;;;;;;26140817;22;20183;-70
2022/08/27 22:56:49;;;;;;;0.20;0.00;;;24.70;99.90;;;;;;26117224;22;20210;-70
2022/08/27 23:06:54;;;;;;;0.20;0.00;;;24.80;99.90;;;;;;26143420;22;20215;-70
2022/08/27 23:16:58;;;;;;;0.20;0.00;;;24.70;99.90;;;;;;26170411;22;20172;-71
2022/08/27 23:37:24;;;;;;;0.20;0.00;;;24.40;99.90;;;;;;26142382;22;20847;-71
2022/08/27 23:47:29;;;;;;;0.20;0.00;;;24.40;99.90;;;;;;26168156;22;20195;-70
2022/08/27 23:57:33;;;;;;;0.20;0.00;;;24.40;99.90;;;;;;26140960;22;20187;-69
